Terminal Aerodrome Forecast
Issued by NWS Twin Cities, MN

Home | Current Version | Previous Version | Graphics & Text | Print | Product List | Glossary On
Versions: 1 2 3 4 5 6 7 8 9 10 11 12 13 14 15 16 17 18 19 20 21 22 23 24
000
FTUS43 KMPX 132300
TAFMSP
TAF
KMSP 132335Z 1400/1506 36017G25KT P6SM BKN035 OVC080
     FM140400 35020G27KT P6SM BKN040 OVC100
     FM140900 34017G25KT P6SM SCT045 BKN250
     FM141900 33018G24KT P6SM BKN050
     FM150100 33015G21KT P6SM SCT050=

USA.gov is the U.S. government's official web portal to all federal, state and local government web resources and services.